EVLA/LPX METAR and TAF weather

Enter ICAO airport designator
Station Type Date Time Source
EVLA METAR 2020/06/01 15:20 UTC NOAA

EVLA 011520Z AUTO 35007KT 300V030 9999 FEW083/// 19/09 Q1020


Station Type Date Time Source
EVLA Decoded METAR 2020/06/01 15:20 UTC NOAA

Liepaja International Airport, Latvia (EVLA) 56-31N 021-05E
Jun 01, 2020 - 11:20 AM EDT / 2020.06.01 1520 UTC
Wind: from the N (350 degrees) at 8 MPH (7 KT) (direction variable):0
Visibility: greater than 7 mile(s):0
Sky conditions: mostly clear
Temperature: 66 F (19 C)
Dew Point: 48 F (9 C)
Relative Humidity: 52%
Pressure (altimeter): 30.12 in. Hg (1020 hPa)
ob: EVLA 011520Z AUTO 35007KT 300V030 9999 FEW083/// 19/09 Q1020
cycle: 15

Station Type Date Time Source
EVLA TAF 2020/06/01 15:06 UTC NOAA

TAF TAF EVLA 011403Z 0115/0215 36010KT CAVOK
TEMPO 0212/0215 36015G28KT

Example: see airport list